Portada
METAR-TAF:

METAR-TAF

Aeroports :

Bamako, Mali

latitud: 12-32N, longitud: 007-57W, altitud: 380 m

Observació

L'informe es va fer fa 42 minuts, a les 05:00 UTC
Vent 4 kt del Nord
Temperatura 21°C
Humitat 64%
Pressió 1014 hPa
Visibilitat 10 km o més
sense núvols per sota de 1500 mi sense presència de cumulonimbus.

METAR: GABS 200500Z 01004KT CAVOK 21/14 Q1014 NOSIG

Hora: 05:42 (05:42 UTC)

Pronòstic

L'informe es va fer fa 6 hores i 12 minuts, a les 23:30 UTC
Pronòstic vàlid del 20 a les 00 UTC al 21 a les 06 UTC
Vent 8 kt del Nord-Est
Visibilitat 10 km o més
sense núvols per sota de 1500 mi sense presència de cumulonimbus.
Probabilitat 40% :
Temporalment
l' 20 a les 06 UTC al 20 a les 11 UTC
Visibilitat: 4000 m
calitja

TAF: GABS 192330Z 2000/2106 04008KT CAVOK PROB40 TEMPO 2006/2011 4000 HZ

Observacions i pronòstics meteorològics de més de 4000 aeroports (METAR i TAF).

Les estacions disponibles són els punts grocs i vermells al mapa.

Posi el ratolí al punt desitjat per veure el nom de l'estació.

Feu clic per veure les observacions i els pronòstics meteorològics.

Per canviar el mapa: feu clic els botons verds amb una creu de color negre per apropar; al botó verd amb un guió per allunyar la imatge; o en les fletxes verdes per a mapes adjacents.


METAR-TAF: